createdAt,value
2022-09-07T00:00:59.226Z,1.10
2022-09-07T00:03:28.493Z,1.30
2022-09-07T00:05:56.593Z,1.20
2022-09-07T00:08:28.249Z,1.13
2022-09-07T00:10:58.195Z,1.30
2022-09-07T00:13:28.180Z,1.20
2022-09-07T00:15:56.141Z,1.73
2022-09-07T00:18:24.091Z,1.20
2022-09-07T00:21:00.882Z,1.40
2022-09-07T00:23:29.653Z,1.20
2022-09-07T00:26:01.458Z,1.47
2022-09-07T00:28:29.299Z,1.30
2022-09-07T00:30:57.091Z,1.43
2022-09-07T00:33:25.106Z,1.37
2022-09-07T00:35:52.869Z,3.23
2022-09-07T00:38:22.147Z,1.20
2022-09-07T00:40:49.919Z,1.23
2022-09-07T00:43:29.997Z,1.10
2022-09-07T00:45:57.733Z,1.37
2022-09-07T00:48:30.194Z,1.50
2022-09-07T00:51:02.277Z,1.10
2022-09-07T00:53:34.066Z,1.20
2022-09-07T00:56:03.717Z,1.20
2022-09-07T00:58:35.162Z,1.37
2022-09-07T01:01:02.935Z,1.07
2022-09-07T01:03:35.897Z,1.20
2022-09-07T01:06:08.009Z,1.35
2022-09-07T01:08:37.380Z,1.20
2022-09-07T01:11:05.475Z,1.43
2022-09-07T01:13:33.521Z,1.40
2022-09-07T01:16:08.793Z,1.17
2022-09-07T01:18:43.779Z,1.03
2022-09-07T01:21:26.238Z,1.10
2022-09-07T01:24:18.289Z,1.10
2022-09-07T01:27:18.638Z,1.53
2022-09-07T01:29:56.506Z,1.30
2022-09-07T01:32:36.021Z,1.23
2022-09-07T01:35:10.435Z,1.33
2022-09-07T01:37:45.021Z,1.37
2022-09-07T01:40:16.949Z,1.30
2022-09-07T01:42:50.347Z,1.47
2022-09-07T01:45:23.401Z,1.10
2022-09-07T01:47:54.756Z,1.30
2022-09-07T01:50:26.639Z,1.10
2022-09-07T01:52:59.251Z,1.23
2022-09-07T01:55:32.801Z,1.53
2022-09-07T01:58:04.989Z,1.40
2022-09-07T02:00:36.046Z,1.10
2022-09-07T02:03:09.782Z,1.20
2022-09-07T02:05:45.984Z,1.00
2022-09-07T02:08:17.536Z,1.10
2022-09-07T02:10:50.352Z,1.00
2022-09-07T02:13:23.414Z,1.30
2022-09-07T02:15:57.311Z,1.20
2022-09-07T02:18:27.580Z,1.10
2022-09-07T02:20:59.251Z,1.57
2022-09-07T02:23:31.609Z,1.20
2022-09-07T02:26:03.877Z,1.30
2022-09-07T02:28:36.529Z,1.50
2022-09-07T02:31:06.172Z,1.27
2022-09-07T02:33:34.458Z,2.00
2022-09-07T02:36:04.145Z,1.30
2022-09-07T02:38:32.357Z,1.17
2022-09-07T02:41:02.411Z,1.40
2022-09-07T02:43:32.566Z,1.30
2022-09-07T02:46:18.392Z,1.33
2022-09-07T02:48:59.455Z,1.40
2022-09-07T02:51:33.470Z,1.77
2022-09-07T02:54:16.697Z,1.30
2022-09-07T02:56:59.873Z,1.20
2022-09-07T02:59:42.179Z,1.40
2022-09-07T03:02:18.968Z,1.27
2022-09-07T03:04:51.794Z,1.30
2022-09-07T03:07:24.319Z,1.37
2022-09-07T03:09:55.008Z,1.50
2022-09-07T03:12:24.868Z,1.20
2022-09-07T03:14:52.626Z,1.40
2022-09-07T03:17:21.735Z,1.40
2022-09-07T03:19:49.505Z,1.40
2022-09-07T03:22:17.242Z,1.10
2022-09-07T03:24:45.529Z,1.20
2022-09-07T03:27:13.298Z,4.53
2022-09-07T03:29:42.085Z,1.50
2022-09-07T03:32:10.006Z,1.30
2022-09-07T03:34:39.090Z,1.27
2022-09-07T03:37:08.782Z,1.10
2022-09-07T03:39:36.990Z,1.53
2022-09-07T03:42:04.990Z,1.30
2022-09-07T03:44:33.416Z,1.67
2022-09-07T03:47:01.137Z,1.33
2022-09-07T03:49:29.003Z,1.73
2022-09-07T03:51:58.107Z,1.47
2022-09-07T03:54:25.994Z,1.20
2022-09-07T03:56:53.723Z,1.00
2022-09-07T03:59:21.494Z,1.47
2022-09-07T04:01:49.338Z,1.50
2022-09-07T04:04:17.192Z,1.67
2022-09-07T04:06:44.879Z,1.40
2022-09-07T04:09:15.558Z,1.63
2022-09-07T04:11:43.304Z,1.60
2022-09-07T04:14:12.154Z,1.40
2022-09-07T04:16:40.444Z,1.10
2022-09-07T04:19:08.277Z,1.67
2022-09-07T04:21:36.070Z,1.40
2022-09-07T04:24:04.523Z,1.60
2022-09-07T04:26:35.617Z,1.67
2022-09-07T04:29:04.325Z,1.57
2022-09-07T04:31:33.800Z,1.33
2022-09-07T04:34:01.699Z,1.40
2022-09-07T04:36:29.884Z,1.70
2022-09-07T04:38:59.502Z,3.30
2022-09-07T04:41:29.986Z,1.60
2022-09-07T04:44:00.509Z,1.70
2022-09-07T04:46:30.645Z,1.70
2022-09-07T04:49:00.499Z,1.70
2022-09-07T04:51:30.278Z,1.53
2022-09-07T04:53:59.714Z,1.60
2022-09-07T04:56:27.965Z,1.47
2022-09-07T04:58:55.753Z,1.77
2022-09-07T05:01:25.964Z,1.47
2022-09-07T05:03:54.130Z,1.50
2022-09-07T05:06:23.040Z,1.77
2022-09-07T05:08:52.525Z,1.50
2022-09-07T05:11:27.725Z,1.47
2022-09-07T05:13:57.504Z,1.57
2022-09-07T05:16:27.575Z,1.50
2022-09-07T05:18:59.952Z,1.60
2022-09-07T05:21:32.257Z,1.30
2022-09-07T05:24:01.206Z,1.80
2022-09-07T05:26:31.013Z,1.30
2022-09-07T05:31:51.464Z,1.70
2022-09-07T05:34:35.020Z,1.70
2022-09-07T05:37:03.005Z,1.43
2022-09-07T05:39:32.077Z,1.60
2022-09-07T05:42:00.454Z,1.37
2022-09-07T05:44:44.643Z,1.40
2022-09-07T05:47:14.814Z,1.60
2022-09-07T05:49:42.584Z,1.50
2022-09-07T05:52:10.504Z,1.70
2022-09-07T05:54:38.434Z,1.40
2022-09-07T05:57:07.210Z,1.50
2022-09-07T05:59:35.065Z,1.50
2022-09-07T06:02:02.985Z,1.87
2022-09-07T06:04:32.190Z,2.03
2022-09-07T06:12:36.315Z,1.80
2022-09-07T06:15:05.438Z,1.83
2022-09-07T06:17:33.212Z,1.80
2022-09-07T06:20:02.593Z,2.93
2022-09-07T06:22:31.305Z,2.43
2022-09-07T06:24:59.579Z,1.97
2022-09-07T06:27:27.812Z,2.20
2022-09-07T06:29:55.728Z,2.33
2022-09-07T06:35:13.478Z,2.23
2022-09-07T06:37:41.492Z,2.83
2022-09-07T06:40:11.529Z,2.57
2022-09-07T06:42:39.738Z,2.37
2022-09-07T06:45:09.954Z,2.20
2022-09-07T06:47:39.198Z,2.50
2022-09-07T06:50:07.711Z,2.67
2022-09-07T06:55:27.563Z,2.67
2022-09-07T06:57:55.338Z,2.20
2022-09-07T07:00:23.049Z,2.20
2022-09-07T07:02:50.875Z,2.30
2022-09-07T07:05:18.777Z,2.60
2022-09-07T07:07:47.861Z,2.33
2022-09-07T07:10:16.548Z,1.93
2022-09-07T07:15:12.623Z,2.90
2022-09-07T07:17:40.422Z,2.37
2022-09-07T07:20:09.190Z,2.27
2022-09-07T07:22:52.254Z,2.67
2022-09-07T07:25:21.984Z,2.60
2022-09-07T07:27:50.385Z,2.33
2022-09-07T07:30:20.276Z,2.70
2022-09-07T07:32:48.489Z,2.57
2022-09-07T07:35:16.358Z,3.13
2022-09-07T07:37:44.079Z,2.80
2022-09-07T07:40:16.587Z,2.50
2022-09-07T07:42:47.873Z,3.07
2022-09-07T07:48:04.484Z,2.53
2022-09-07T07:50:33.144Z,3.23
2022-09-07T07:55:49.560Z,2.80
2022-09-07T07:58:19.116Z,2.83
2022-09-07T08:00:55.933Z,2.47
2022-09-07T08:03:25.381Z,2.60
2022-09-07T08:05:53.742Z,2.43
2022-09-07T08:08:22.923Z,2.57
2022-09-07T08:10:50.983Z,2.50
2022-09-07T08:13:21.133Z,2.97
2022-09-07T08:15:48.940Z,2.27
2022-09-07T08:18:18.203Z,2.57
2022-09-07T08:20:46.252Z,2.37
2022-09-07T08:23:14.649Z,2.57
2022-09-07T08:25:51.039Z,2.10
2022-09-07T08:28:20.468Z,2.10
2022-09-07T08:30:48.336Z,2.20
2022-09-07T08:33:16.291Z,2.17
2022-09-07T08:35:44.297Z,2.20
2022-09-07T08:38:12.099Z,2.17
2022-09-07T08:40:40.116Z,2.70
2022-09-07T08:43:18.507Z,2.77
2022-09-07T08:45:52.680Z,2.67
2022-09-07T08:48:31.246Z,2.03
2022-09-07T08:51:05.246Z,2.20
2022-09-07T08:53:33.391Z,2.57
2022-09-07T08:56:05.429Z,2.33
2022-09-07T08:58:49.175Z,2.30
2022-09-07T09:01:37.016Z,2.37
2022-09-07T09:04:20.174Z,5.40
2022-09-07T09:07:02.166Z,2.57
2022-09-07T09:09:43.442Z,2.83
2022-09-07T09:12:18.176Z,2.63
2022-09-07T09:14:59.688Z,2.77
2022-09-07T09:17:33.434Z,2.47
2022-09-07T09:20:10.782Z,2.20
2022-09-07T09:22:39.475Z,2.20
2022-09-07T09:25:19.061Z,2.50
2022-09-07T09:27:47.005Z,1.90
2022-09-07T09:30:16.705Z,2.67
2022-09-07T09:32:48.294Z,2.00
2022-09-07T09:35:20.373Z,2.50
2022-09-07T09:37:48.114Z,2.30
2022-09-07T09:40:22.365Z,1.98
2022-09-07T09:43:01.213Z,2.00
2022-09-07T09:46:12.198Z,2.13
2022-09-07T09:48:28.057Z,2.30
2022-09-07T09:53:55.706Z,2.03
2022-09-07T09:56:24.383Z,2.58
2022-09-07T10:00:05.260Z,2.30
2022-09-07T10:04:33.876Z,2.42
2022-09-07T10:07:15.488Z,2.38
2022-09-07T10:09:49.666Z,2.40
2022-09-07T10:12:27.786Z,2.28
2022-09-07T10:14:56.551Z,2.40
2022-09-07T10:17:30.656Z,2.33
2022-09-07T10:20:03.581Z,2.20
2022-09-07T10:22:34.280Z,2.08
2022-09-07T10:25:03.000Z,2.25
2022-09-07T10:27:34.774Z,2.13
2022-09-07T10:30:06.802Z,2.30
2022-09-07T10:32:50.977Z,2.47
2022-09-07T10:35:25.155Z,2.53
2022-09-07T10:38:03.693Z,2.20
2022-09-07T10:40:38.038Z,2.55
2022-09-07T10:43:29.265Z,2.63
2022-09-07T10:49:20.881Z,2.22
2022-09-07T10:52:00.879Z,2.55
2022-09-07T10:54:39.664Z,2.33
2022-09-07T10:57:30.067Z,2.72
2022-09-07T11:00:08.915Z,2.00
2022-09-07T11:05:51.433Z,2.22
2022-09-07T11:09:15.148Z,2.03
2022-09-07T11:14:18.582Z,2.00
2022-09-07T11:16:52.772Z,2.63
2022-09-07T11:19:35.301Z,2.40
2022-09-07T11:22:18.240Z,2.53
2022-09-07T11:27:45.404Z,2.33
2022-09-07T11:30:22.132Z,2.08
2022-09-07T11:32:56.334Z,2.30
2022-09-07T11:35:37.402Z,1.95
2022-09-07T11:38:23.474Z,2.28
2022-09-07T11:41:00.499Z,2.50
2022-09-07T11:43:31.148Z,1.92
2022-09-07T11:46:04.714Z,2.38
2022-09-07T11:48:37.720Z,2.22
2022-09-07T11:51:11.716Z,2.10
2022-09-07T11:53:44.655Z,2.67
2022-09-07T11:56:19.266Z,3.13
2022-09-07T11:59:03.873Z,2.20
2022-09-07T12:01:41.518Z,2.50
2022-09-07T12:04:29.373Z,2.05
2022-09-07T12:07:24.452Z,3.35
2022-09-07T12:10:10.925Z,2.65
2022-09-07T12:13:07.087Z,2.85
2022-09-07T12:15:44.445Z,2.22
2022-09-07T12:18:27.994Z,2.33
2022-09-07T12:20:55.990Z,3.10
2022-09-07T12:23:29.320Z,2.70
2022-09-07T12:26:44.720Z,2.08
2022-09-07T12:29:23.675Z,2.55
2022-09-07T12:31:58.830Z,2.20
2022-09-07T12:35:00.364Z,2.38
2022-09-07T12:37:41.404Z,2.40
2022-09-07T12:40:47.813Z,2.65
2022-09-07T12:43:50.597Z,2.33
2022-09-07T12:46:41.561Z,2.50
2022-09-07T12:49:22.981Z,2.92
2022-09-07T12:52:03.293Z,2.58
2022-09-07T12:54:41.845Z,2.53
2022-09-07T12:57:32.671Z,2.10
2022-09-07T13:00:13.000Z,2.90
2022-09-07T13:06:14.712Z,2.20
2022-09-07T13:09:00.666Z,2.42
2022-09-07T13:11:34.102Z,2.60
2022-09-07T13:14:08.452Z,2.63
2022-09-07T13:20:04.196Z,2.42
2022-09-07T13:22:56.218Z,2.83
2022-09-07T13:25:48.926Z,2.30
2022-09-07T13:28:29.309Z,2.50
2022-09-07T13:31:18.372Z,2.10
2022-09-07T13:33:50.371Z,2.17
2022-09-07T13:36:26.152Z,2.97
2022-09-07T13:39:09.469Z,2.60
2022-09-07T13:44:28.201Z,2.70
2022-09-07T13:47:07.560Z,2.38
2022-09-07T13:49:55.169Z,2.92
2022-09-07T13:52:32.322Z,2.95
2022-09-07T13:55:14.202Z,2.83
2022-09-07T13:57:51.993Z,2.28
2022-09-07T14:00:20.337Z,2.33
2022-09-07T14:02:56.485Z,2.92
2022-09-07T14:05:25.332Z,2.28
2022-09-07T14:07:53.009Z,2.63
2022-09-07T14:10:24.993Z,2.72
2022-09-07T14:12:55.332Z,2.88
2022-09-07T14:15:28.153Z,2.45
2022-09-07T14:18:04.636Z,2.47
2022-09-07T14:20:37.992Z,2.35
2022-09-07T14:23:12.250Z,3.55
2022-09-07T14:28:31.473Z,2.80
2022-09-07T14:31:00.169Z,2.60
2022-09-07T14:33:29.654Z,2.42
2022-09-07T14:35:58.146Z,2.08
2022-09-07T14:41:21.258Z,5.32
2022-09-07T14:43:54.155Z,2.20
2022-09-07T14:46:24.675Z,2.78
2022-09-07T14:48:55.278Z,2.22
2022-09-07T14:51:35.051Z,2.53
2022-09-07T14:54:06.566Z,2.72
2022-09-07T14:56:38.198Z,2.78
2022-09-07T14:59:28.153Z,2.65
2022-09-07T15:02:28.437Z,2.80
2022-09-07T15:05:25.934Z,2.90
2022-09-07T15:07:56.164Z,2.50
2022-09-07T15:10:33.240Z,2.63
2022-09-07T15:13:04.691Z,3.00
2022-09-07T15:15:34.194Z,2.60
2022-09-07T15:18:08.494Z,2.85
2022-09-07T15:20:39.611Z,2.60
2022-09-07T15:23:10.994Z,2.70
2022-09-07T15:25:40.398Z,2.90
2022-09-07T15:29:08.150Z,2.80
2022-09-07T15:33:59.754Z,2.70
2022-09-07T15:36:28.788Z,3.03
2022-09-07T15:39:00.289Z,2.78
2022-09-07T15:41:29.202Z,2.63
2022-09-07T15:43:58.666Z,3.05
2022-09-07T15:46:26.670Z,2.70
2022-09-07T15:48:56.837Z,2.60
2022-09-07T15:54:16.106Z,2.65
2022-09-07T15:57:48.328Z,2.53
2022-09-07T15:59:34.005Z,2.80
2022-09-07T16:02:03.377Z,2.67
2022-09-07T16:04:31.406Z,2.60
2022-09-07T16:07:01.646Z,2.38
2022-09-07T16:09:29.644Z,2.47
2022-09-07T16:12:59.967Z,2.75
2022-09-07T16:14:46.430Z,3.50
2022-09-07T16:17:35.726Z,2.50
2022-09-07T16:20:02.439Z,2.50
2022-09-07T16:25:19.819Z,2.30
2022-09-07T16:27:47.553Z,2.47
2022-09-07T16:30:16.683Z,2.60
2022-09-07T16:32:44.892Z,2.40
2022-09-07T16:35:12.796Z,2.20
2022-09-07T16:38:43.715Z,2.90
2022-09-07T16:40:28.181Z,3.17
2022-09-07T16:42:55.847Z,2.83
2022-09-07T16:48:12.730Z,2.70
2022-09-07T16:50:40.461Z,3.15
2022-09-07T16:53:08.539Z,3.95
2022-09-07T16:55:37.489Z,2.67
2022-09-07T17:00:54.319Z,3.20
2022-09-07T17:03:22.042Z,2.70
2022-09-07T17:05:49.748Z,2.80
2022-09-07T17:08:17.467Z,2.67
2022-09-07T17:10:45.196Z,3.15
2022-09-07T17:13:12.979Z,2.67
2022-09-07T17:15:40.672Z,2.80
2022-09-07T17:18:09.721Z,2.33
2022-09-07T17:20:39.877Z,2.63
2022-09-07T17:23:07.694Z,2.50
2022-09-07T17:25:35.444Z,2.70
2022-09-07T17:28:04.987Z,2.75
2022-09-07T17:30:34.286Z,3.08
2022-09-07T17:33:02.302Z,2.45
2022-09-07T17:35:36.745Z,2.60
2022-09-07T17:40:56.360Z,3.17
2022-09-07T17:43:44.825Z,3.38
2022-09-07T17:46:15.607Z,2.55
2022-09-07T17:48:43.593Z,2.90
2022-09-07T17:51:13.314Z,3.10
2022-09-07T17:53:45.288Z,3.15
2022-09-07T17:56:15.187Z,3.10
2022-09-07T17:58:44.002Z,3.15
2022-09-07T18:01:14.000Z,3.33
2022-09-07T18:03:42.105Z,3.40
2022-09-07T18:06:12.694Z,3.10
2022-09-07T18:08:40.583Z,3.10
2022-09-07T18:13:58.577Z,3.00
2022-09-07T18:16:29.417Z,3.08
2022-09-07T18:18:59.970Z,3.30
2022-09-07T18:21:31.431Z,2.85
2022-09-07T18:24:04.716Z,3.05
2022-09-07T18:26:35.610Z,3.65
2022-09-07T18:29:04.326Z,2.97
2022-09-07T18:31:33.531Z,2.88
2022-09-07T18:34:01.706Z,3.03
2022-09-07T18:36:31.026Z,2.97
2022-09-07T18:39:01.861Z,3.20
2022-09-07T18:41:29.630Z,3.38
2022-09-07T18:43:58.364Z,3.10
2022-09-07T18:46:26.902Z,3.13
2022-09-07T18:48:55.346Z,3.30
2022-09-07T18:51:23.061Z,2.95
2022-09-07T18:53:52.075Z,3.13
2022-09-07T18:56:21.697Z,3.50
2022-09-07T18:58:49.782Z,3.05
2022-09-07T19:01:19.405Z,3.28
2022-09-07T19:03:54.834Z,3.20
2022-09-07T19:06:23.323Z,2.88
2022-09-07T19:08:53.375Z,3.22
2022-09-07T19:11:23.803Z,2.80
2022-09-07T19:13:56.421Z,3.03
2022-09-07T19:16:24.701Z,3.08
2022-09-07T19:18:54.004Z,2.97
2022-09-07T19:21:24.019Z,2.85
2022-09-07T19:23:57.276Z,2.95
2022-09-07T19:26:26.307Z,4.20
2022-09-07T19:28:57.184Z,3.67
2022-09-07T19:31:25.551Z,3.30
2022-09-07T19:33:55.564Z,3.60
2022-09-07T19:36:23.351Z,4.43
2022-09-07T19:38:51.405Z,3.13
2022-09-07T19:41:20.583Z,2.78
2022-09-07T19:43:48.617Z,2.88
2022-09-07T19:46:21.452Z,2.90
2022-09-07T19:48:52.072Z,2.92
2022-09-07T19:51:19.921Z,3.20
2022-09-07T19:53:48.354Z,3.30
2022-09-07T19:56:18.561Z,3.72
2022-09-07T19:58:48.439Z,3.20
2022-09-07T20:01:18.676Z,3.13
2022-09-07T20:03:48.683Z,3.08
2022-09-07T20:06:18.771Z,4.40
2022-09-07T20:08:47.247Z,2.60
2022-09-07T20:11:17.632Z,2.88
2022-09-07T20:13:47.397Z,3.30
2022-09-07T20:16:17.184Z,3.13
2022-09-07T20:18:45.984Z,2.80
2022-09-07T20:21:15.048Z,3.10
2022-09-07T20:23:43.006Z,3.17
2022-09-07T20:26:12.705Z,2.88
2022-09-07T20:28:42.074Z,2.85
2022-09-07T20:31:13.496Z,2.83
2022-09-07T20:33:41.969Z,2.75
2022-09-07T20:36:13.214Z,3.22
2022-09-07T20:38:42.376Z,2.67
2022-09-07T20:41:15.548Z,2.75
2022-09-07T20:43:43.722Z,2.80
2022-09-07T20:46:13.075Z,2.80
2022-09-07T20:48:41.129Z,3.17
2022-09-07T20:51:12.070Z,2.90
2022-09-07T20:53:44.875Z,2.85
2022-09-07T20:56:14.597Z,3.10
2022-09-07T20:58:43.443Z,3.50
2022-09-07T21:01:14.170Z,3.00
2022-09-07T21:03:49.170Z,3.55
2022-09-07T21:06:18.039Z,3.55
2022-09-07T21:08:47.149Z,3.20
2022-09-07T21:11:17.736Z,3.10
2022-09-07T21:13:46.569Z,3.22
2022-09-07T21:16:17.158Z,2.92
2022-09-07T21:18:45.378Z,3.00
2022-09-07T21:21:20.918Z,4.05
2022-09-07T21:23:49.490Z,3.13
2022-09-07T21:26:21.425Z,3.17
2022-09-07T21:28:49.142Z,3.00
2022-09-07T21:31:18.281Z,2.83
2022-09-07T21:33:46.038Z,2.78
2022-09-07T21:36:14.523Z,3.33
2022-09-07T21:38:42.852Z,2.70
2022-09-07T21:41:12.716Z,3.10
2022-09-07T21:43:41.332Z,2.95
2022-09-07T21:46:11.067Z,3.25
2022-09-07T21:48:40.740Z,3.10
2022-09-07T21:51:08.657Z,3.20
2022-09-07T21:53:36.797Z,3.55
2022-09-07T21:56:06.738Z,3.30
2022-09-07T21:58:34.605Z,4.40
2022-09-07T22:01:12.012Z,3.50
2022-09-07T22:03:41.705Z,3.63
2022-09-07T22:06:09.677Z,3.78
2022-09-07T22:08:39.586Z,3.55
2022-09-07T22:11:08.427Z,3.25
2022-09-07T22:13:36.259Z,4.15
2022-09-07T22:16:04.393Z,3.30
2022-09-07T22:18:32.449Z,3.10
2022-09-07T22:21:08.163Z,3.67
2022-09-07T22:23:39.630Z,3.80
2022-09-07T22:26:08.721Z,3.38
2022-09-07T22:28:37.184Z,3.78
2022-09-07T22:31:12.829Z,3.33
2022-09-07T22:33:41.449Z,3.22
2022-09-07T22:36:13.003Z,3.60
2022-09-07T22:38:41.248Z,3.45
2022-09-07T22:41:10.305Z,4.13
2022-09-07T22:43:38.753Z,3.67
2022-09-07T22:46:07.223Z,3.50
2022-09-07T22:48:34.979Z,3.75
2022-09-07T22:51:03.482Z,3.40
2022-09-07T22:53:34.216Z,3.75
2022-09-07T22:56:07.207Z,4.03
2022-09-07T22:58:35.066Z,4.05
2022-09-07T23:01:02.969Z,3.58
2022-09-07T23:03:31.846Z,4.00
2022-09-07T23:06:00.561Z,4.20
2022-09-07T23:08:28.716Z,4.30
2022-09-07T23:11:04.867Z,4.22
2022-09-07T23:13:33.021Z,4.10
2022-09-07T23:16:05.522Z,4.28
2022-09-07T23:18:34.170Z,3.95
2022-09-07T23:21:02.758Z,3.88
2022-09-07T23:23:31.032Z,4.38
2022-09-07T23:26:01.791Z,3.60
2022-09-07T23:28:29.633Z,4.55
2022-09-07T23:30:57.829Z,4.78
2022-09-07T23:33:26.772Z,4.25
2022-09-07T23:35:59.185Z,4.88
2022-09-07T23:38:27.904Z,5.10
2022-09-07T23:40:56.842Z,5.38
2022-09-07T23:43:28.160Z,4.80
2022-09-07T23:45:56.830Z,4.40
2022-09-07T23:48:24.861Z,4.43
2022-09-07T23:50:52.950Z,4.35
2022-09-07T23:53:21.958Z,4.30
2022-09-07T23:55:51.505Z,4.38
2022-09-07T23:58:19.990Z,4.50
